Time;durP1;ratioP1;P1;durP2;ratioP2;P2;SDS_P1;SDS_P2;PMS_P1;PMS_P2;Temp;Humidity;BMP_temperature;BMP_pressure;BME280_temperature;BME280_humidity;BME280_pressure;Samples;Min_cycle;Max_cycle;Signal;HPM_P1;HPM_P2
2023/08/25 00:01:23;;;;;;;1.48;1.38;;;;;;;;;;5073322;28;20047;-82
2023/08/25 00:04:07;;;;;;;1.25;1.15;;;;;;;;;;5069393;28;20024;-81
2023/08/25 00:06:35;;;;;;;1.50;1.40;;;;;;;;;;5082525;28;20016;-82
2023/08/25 00:09:09;;;;;;;2.15;1.70;;;;;;;;;;5091611;28;20257;-83
2023/08/25 00:14:41;;;;;;;3.78;1.83;;;;;;;;;;5002811;28;20046;-81
2023/08/25 00:17:08;;;;;;;2.28;1.52;;;;;;;;;;5007382;28;20499;-80
2023/08/25 00:19:36;;;;;;;2.35;1.50;;;;;;;;;;5038313;28;20021;-83
2023/08/25 00:22:07;;;;;;;2.88;1.48;;;;;;;;;;5079168;28;20028;-82
2023/08/25 00:24:36;;;;;;;3.75;1.33;;;;;;;;;;5078273;28;20016;-82
2023/08/25 00:29:50;;;;;;;2.10;1.52;;;;;;;;;;5069636;28;20040;-82
2023/08/25 00:32:19;;;;;;;2.80;1.80;;;;;;;;;;5065761;28;20046;-83
2023/08/25 00:35:16;;;;;;;2.45;1.70;;;;;;;;;;5071373;28;20058;-83
2023/08/25 00:37:44;;;;;;;1.67;1.50;;;;;;;;;;5091914;28;20101;-82
2023/08/25 00:40:23;;;;;;;1.50;1.40;;;;;;;;;;5092221;28;20024;-84
2023/08/25 00:42:48;;;;;;;1.55;1.45;;;;;;;;;;5071052;28;20044;-82
2023/08/25 00:45:53;;;;;;;1.60;1.50;;;;;;;;;;5066524;28;20016;-81
2023/08/25 00:48:28;;;;;;;1.40;1.30;;;;;;;;;;5078870;28;20031;-82
2023/08/25 00:50:54;;;;;;;1.65;1.55;;;;;;;;;;5082371;28;20024;-81
2023/08/25 00:53:21;;;;;;;5.15;1.65;;;;;;;;;;5086613;28;20021;-81
2023/08/25 00:55:47;;;;;;;3.13;1.90;;;;;;;;;;5085094;28;20101;-81
2023/08/25 00:58:14;;;;;;;4.35;1.60;;;;;;;;;;5082704;28;20029;-81
2023/08/25 01:00:40;;;;;;;1.60;1.50;;;;;;;;;;5086461;28;20020;-81
2023/08/25 01:03:06;;;;;;;3.47;1.60;;;;;;;;;;5067407;28;20042;-81
2023/08/25 01:05:31;;;;;;;1.85;1.60;;;;;;;;;;5068008;28;20040;-82
2023/08/25 01:07:57;;;;;;;2.83;1.40;;;;;;;;;;5085539;28;20028;-82
2023/08/25 01:10:32;;;;;;;1.55;1.40;;;;;;;;;;5067583;28;20046;-81
2023/08/25 01:13:24;;;;;;;3.22;1.88;;;;;;;;;;5085331;28;20083;-82
2023/08/25 01:15:52;;;;;;;;;;;;;;;;;;5085679;28;20025;-82
2023/08/25 01:18:29;;;;;;;1.60;1.50;;;;;;;;;;5077873;28;20002;-81
2023/08/25 01:20:55;;;;;;;1.75;1.65;;;;;;;;;;5066849;28;20017;-82
2023/08/25 01:23:48;;;;;;;1.52;1.25;;;;;;;;;;5084850;28;20078;-82
2023/08/25 01:26:14;;;;;;;1.38;1.20;;;;;;;;;;5079045;28;20024;-81
2023/08/25 01:28:40;;;;;;;2.75;1.42;;;;;;;;;;5067834;28;20021;-81
2023/08/25 01:31:06;;;;;;;1.60;1.50;;;;;;;;;;5085329;28;20031;-82
2023/08/25 01:33:32;;;;;;;2.20;1.70;;;;;;;;;;5091187;28;20008;-81
2023/08/25 01:36:21;;;;;;;2.13;1.60;;;;;;;;;;5066877;28;20084;-81
2023/08/25 01:38:54;;;;;;;1.70;1.60;;;;;;;;;;5085300;28;20035;-82
2023/08/25 01:41:29;;;;;;;3.13;1.35;;;;;;;;;;5069245;28;20039;-82
2023/08/25 01:43:55;;;;;;;1.70;1.52;;;;;;;;;;5087246;28;20054;-82
2023/08/25 01:46:22;;;;;;;2.20;1.65;;;;;;;;;;5087364;28;20020;-82
2023/08/25 01:48:52;;;;;;;1.45;1.30;;;;;;;;;;5085945;28;20039;-81
2023/08/25 01:51:18;;;;;;;3.55;1.65;;;;;;;;;;5086375;28;20024;-81
2023/08/25 01:53:47;;;;;;;1.92;1.73;;;;;;;;;;5083603;28;20025;-81
2023/08/25 01:56:12;;;;;;;1.48;1.38;;;;;;;;;;5085915;28;20013;-81
2023/08/25 01:58:38;;;;;;;1.52;1.35;;;;;;;;;;5067097;28;20028;-81
2023/08/25 02:01:03;;;;;;;1.40;1.30;;;;;;;;;;5087606;28;20387;-81
2023/08/25 02:03:29;;;;;;;1.60;1.50;;;;;;;;;;5072161;28;20016;-81
2023/08/25 02:05:54;;;;;;;1.42;1.33;;;;;;;;;;5089712;28;20050;-81
2023/08/25 02:08:20;;;;;;;2.05;1.55;;;;;;;;;;5090116;28;20055;-82
2023/08/25 02:10:45;;;;;;;3.80;1.27;;;;;;;;;;5090732;28;20032;-81
2023/08/25 02:13:10;;;;;;;1.45;1.35;;;;;;;;;;5090641;28;20027;-81
2023/08/25 02:15:36;;;;;;;2.67;1.70;;;;;;;;;;5090309;28;20076;-81
2023/08/25 02:18:01;;;;;;;2.90;1.52;;;;;;;;;;5071828;28;20035;-82
2023/08/25 02:20:26;;;;;;;1.38;1.27;;;;;;;;;;5090321;28;20267;-82
2023/08/25 02:22:52;;;;;;;1.20;0.95;;;;;;;;;;5081573;28;20033;-81
2023/08/25 02:25:17;;;;;;;5.00;1.35;;;;;;;;;;5071420;28;20043;-81
2023/08/25 02:27:42;;;;;;;1.73;1.38;;;;;;;;;;5089862;28;20024;-81
2023/08/25 02:30:08;;;;;;;2.65;1.40;;;;;;;;;;5090815;28;20071;-82
2023/08/25 02:32:34;;;;;;;3.05;1.40;;;;;;;;;;5090090;28;20200;-82
2023/08/25 02:34:59;;;;;;;2.08;1.48;;;;;;;;;;5090058;28;20028;-82
2023/08/25 02:37:25;;;;;;;1.52;1.42;;;;;;;;;;5088291;28;20035;-81
2023/08/25 02:39:51;;;;;;;1.08;1.08;;;;;;;;;;5087168;28;20041;-82
2023/08/25 02:42:16;;;;;;;1.42;1.33;;;;;;;;;;5076574;28;20036;-82
2023/08/25 02:44:41;;;;;;;1.63;1.20;;;;;;;;;;5077599;28;20029;-82
2023/08/25 02:47:07;;;;;;;2.90;1.48;;;;;;;;;;5053864;28;20362;-82
2023/08/25 02:49:32;;;;;;;2.28;1.42;;;;;;;;;;5076181;28;20085;-82
2023/08/25 02:51:58;;;;;;;1.23;1.13;;;;;;;;;;5087292;28;20016;-82
2023/08/25 02:54:23;;;;;;;1.60;1.23;;;;;;;;;;5086499;28;20021;-81
2023/08/25 02:56:49;;;;;;;1.38;1.20;;;;;;;;;;5080609;28;20282;-82
2023/08/25 02:59:14;;;;;;;4.03;1.40;;;;;;;;;;5077897;28;20511;-82
2023/08/25 03:01:39;;;;;;;1.35;1.25;;;;;;;;;;5078296;28;20033;-82
2023/08/25 03:04:05;;;;;;;2.63;1.40;;;;;;;;;;5070795;28;20024;-82
2023/08/25 03:06:30;;;;;;;2.40;1.23;;;;;;;;;;5058009;28;20036;-82
2023/08/25 03:08:56;;;;;;;2.03;1.48;;;;;;;;;;5078152;28;20028;-81
2023/08/25 03:11:21;;;;;;;1.55;1.17;;;;;;;;;;5076127;28;20391;-81
2023/08/25 03:13:46;;;;;;;1.38;1.20;;;;;;;;;;5077157;28;20075;-82
2023/08/25 03:16:12;;;;;;;2.28;1.25;;;;;;;;;;5085124;28;20452;-81
2023/08/25 03:18:37;;;;;;;1.25;1.20;;;;;;;;;;5081617;28;20016;-82
2023/08/25 03:21:03;;;;;;;1.52;1.33;;;;;;;;;;5054067;28;20024;-81
2023/08/25 03:23:29;;;;;;;4.82;1.33;;;;;;;;;;5088128;28;20032;-82
2023/08/25 03:25:54;;;;;;;3.53;1.25;;;;;;;;;;5078056;28;20025;-82
2023/08/25 03:28:19;;;;;;;1.73;1.63;;;;;;;;;;5087272;28;20025;-81
2023/08/25 03:30:45;;;;;;;3.13;1.40;;;;;;;;;;5069875;28;20025;-81
2023/08/25 03:33:10;;;;;;;3.83;1.55;;;;;;;;;;5075993;28;20119;-82
2023/08/25 03:35:35;;;;;;;4.15;1.50;;;;;;;;;;5081697;28;20025;-82
2023/08/25 03:38:01;;;;;;;1.67;1.30;;;;;;;;;;5086937;28;20025;-82
2023/08/25 03:40:27;;;;;;;1.35;1.25;;;;;;;;;;5079361;28;20017;-81
2023/08/25 03:42:53;;;;;;;2.72;1.20;;;;;;;;;;5087100;28;20104;-81
2023/08/25 03:45:18;;;;;;;2.67;1.58;;;;;;;;;;5086485;28;20047;-81
2023/08/25 03:47:43;;;;;;;1.65;1.50;;;;;;;;;;5086430;28;20059;-81
2023/08/25 03:50:09;;;;;;;3.17;2.08;;;;;;;;;;5070916;28;20108;-82
2023/08/25 03:52:35;;;;;;;4.30;1.50;;;;;;;;;;5078257;28;20021;-82
2023/08/25 03:55:00;;;;;;;1.45;1.30;;;;;;;;;;5060624;28;20067;-82
2023/08/25 03:57:25;;;;;;;1.50;1.40;;;;;;;;;;5086526;28;20017;-81
2023/08/25 03:59:51;;;;;;;2.15;1.60;;;;;;;;;;5079489;28;20085;-81
2023/08/25 04:02:16;;;;;;;2.38;1.50;;;;;;;;;;5079784;28;20357;-81
2023/08/25 04:04:41;;;;;;;1.40;1.30;;;;;;;;;;5086280;28;20036;-81
2023/08/25 04:07:07;;;;;;;2.58;1.85;;;;;;;;;;5084980;28;20091;-82
2023/08/25 04:09:33;;;;;;;1.70;1.60;;;;;;;;;;5063240;28;20020;-81
2023/08/25 04:11:58;;;;;;;1.48;1.38;;;;;;;;;;5083431;28;20078;-81
2023/08/25 04:14:24;;;;;;;1.75;1.35;;;;;;;;;;5073813;28;20085;-82
2023/08/25 04:16:49;;;;;;;1.55;1.38;;;;;;;;;;5067359;28;20008;-80
2023/08/25 04:19:16;;;;;;;1.92;1.67;;;;;;;;;;5088118;28;20035;-82
2023/08/25 04:21:43;;;;;;;2.58;1.30;;;;;;;;;;5088510;28;20024;-80
2023/08/25 04:24:08;;;;;;;1.73;1.42;;;;;;;;;;5078342;28;20021;-82
2023/08/25 04:26:34;;;;;;;1.23;1.13;;;;;;;;;;5070338;28;20590;-82
2023/08/25 04:28:59;;;;;;;2.10;1.27;;;;;;;;;;5084375;28;20047;-82
2023/08/25 04:31:24;;;;;;;1.77;1.40;;;;;;;;;;5082449;28;20028;-82
2023/08/25 04:33:50;;;;;;;1.80;1.42;;;;;;;;;;5065504;28;20566;-82
2023/08/25 04:36:15;;;;;;;2.58;1.50;;;;;;;;;;5057528;28;20025;-80
2023/08/25 04:38:40;;;;;;;1.95;1.67;;;;;;;;;;5066470;28;20070;-83
2023/08/25 04:41:06;;;;;;;2.78;1.50;;;;;;;;;;5083290;28;20388;-81
2023/08/25 04:43:31;;;;;;;1.92;1.50;;;;;;;;;;5084933;28;20020;-80
2023/08/25 04:45:56;;;;;;;2.08;1.42;;;;;;;;;;5058602;28;20082;-80
2023/08/25 04:48:22;;;;;;;3.28;1.90;;;;;;;;;;5064228;28;20024;-82
2023/08/25 04:50:48;;;;;;;3.50;1.40;;;;;;;;;;5054381;28;20028;-80
2023/08/25 04:53:13;;;;;;;3.40;1.77;;;;;;;;;;5066392;28;20092;-81
2023/08/25 04:55:39;;;;;;;1.40;1.30;;;;;;;;;;5046251;28;20028;-81
2023/08/25 04:58:04;;;;;;;3.35;1.90;;;;;;;;;;5068217;28;20039;-81
2023/08/25 05:00:30;;;;;;;2.17;1.70;;;;;;;;;;5080493;28;20023;-80
2023/08/25 05:02:55;;;;;;;3.35;1.80;;;;;;;;;;5064564;28;20021;-81
2023/08/25 05:05:20;;;;;;;1.60;1.50;;;;;;;;;;5084448;28;20025;-80
2023/08/25 05:07:46;;;;;;;1.73;1.48;;;;;;;;;;5066696;28;20024;-81
2023/08/25 05:10:12;;;;;;;2.08;1.58;;;;;;;;;;5082267;28;20167;-81
2023/08/25 05:12:38;;;;;;;1.77;1.67;;;;;;;;;;5060276;28;20024;-80
2023/08/25 05:15:04;;;;;;;2.20;1.20;;;;;;;;;;5075339;28;20024;-80
2023/08/25 05:17:29;;;;;;;3.00;1.83;;;;;;;;;;5059473;28;20452;-81
2023/08/25 05:19:55;;;;;;;3.00;1.70;;;;;;;;;;5086183;28;20027;-81
2023/08/25 05:22:20;;;;;;;1.90;1.35;;;;;;;;;;5084072;28;20039;-81
2023/08/25 05:24:46;;;;;;;2.15;1.80;;;;;;;;;;5084412;28;20092;-80
2023/08/25 05:27:11;;;;;;;2.25;1.50;;;;;;;;;;5090058;28;20024;-81
2023/08/25 05:29:37;;;;;;;3.67;1.80;;;;;;;;;;5070453;28;20020;-81
2023/08/25 05:32:03;;;;;;;1.90;1.75;;;;;;;;;;5066058;28;20032;-81
2023/08/25 05:34:28;;;;;;;2.45;1.85;;;;;;;;;;5078760;28;20021;-81
2023/08/25 05:36:54;;;;;;;1.75;1.60;;;;;;;;;;5086822;28;20025;-81
2023/08/25 05:39:21;;;;;;;2.38;1.67;;;;;;;;;;5068844;28;20055;-80
2023/08/25 05:41:46;;;;;;;2.45;1.67;;;;;;;;;;5089243;28;20039;-81
2023/08/25 05:44:12;;;;;;;1.67;1.50;;;;;;;;;;5049606;28;20084;-80
2023/08/25 05:46:39;;;;;;;2.10;1.30;;;;;;;;;;5078336;28;20039;-80
2023/08/25 05:49:04;;;;;;;5.00;1.85;;;;;;;;;;5058677;28;20119;-81
2023/08/25 05:51:30;;;;;;;2.67;1.75;;;;;;;;;;5084613;28;20017;-81
2023/08/25 05:53:55;;;;;;;2.15;1.63;;;;;;;;;;5085991;28;20025;-81
2023/08/25 05:56:21;;;;;;;2.00;1.67;;;;;;;;;;5085446;28;20025;-81
2023/08/25 05:58:46;;;;;;;1.60;1.50;;;;;;;;;;5068497;28;20029;-81
2023/08/25 06:01:12;;;;;;;2.47;1.80;;;;;;;;;;5071317;28;20075;-81
2023/08/25 06:03:38;;;;;;;4.57;1.67;;;;;;;;;;5084671;28;20095;-80
2023/08/25 06:06:03;;;;;;;2.30;1.50;;;;;;;;;;5085859;28;20020;-80
2023/08/25 06:08:30;;;;;;;2.20;1.60;;;;;;;;;;5055072;28;20083;-81
2023/08/25 06:10:55;;;;;;;1.92;1.67;;;;;;;;;;5079124;28;20024;-81
2023/08/25 06:13:20;;;;;;;1.60;1.50;;;;;;;;;;5075109;28;20043;-82
2023/08/25 06:15:48;;;;;;;2.80;1.50;;;;;;;;;;5083530;28;20055;-81
2023/08/25 06:18:14;;;;;;;2.08;1.63;;;;;;;;;;5088619;28;20041;-82
2023/08/25 06:20:39;;;;;;;1.95;1.58;;;;;;;;;;5088643;28;20025;-81
2023/08/25 06:23:05;;;;;;;1.40;1.30;;;;;;;;;;5070802;28;20099;-81
2023/08/25 06:25:31;;;;;;;1.58;1.48;;;;;;;;;;5077014;28;20027;-81
2023/08/25 06:27:56;;;;;;;1.45;1.35;;;;;;;;;;5056564;28;20312;-81
2023/08/25 06:30:21;;;;;;;1.52;1.38;;;;;;;;;;5065582;28;20052;-82
2023/08/25 06:32:47;;;;;;;1.70;1.60;;;;;;;;;;5077315;28;20028;-81
2023/08/25 06:35:12;;;;;;;2.58;2.17;;;;;;;;;;5065764;28;20064;-82
2023/08/25 06:37:38;;;;;;;2.67;1.70;;;;;;;;;;5078737;28;20020;-82
2023/08/25 06:40:07;;;;;;;2.15;1.60;;;;;;;;;;5086639;28;20031;-81
2023/08/25 06:42:33;;;;;;;2.38;1.65;;;;;;;;;;5051238;28;20088;-82
2023/08/25 06:44:58;;;;;;;4.90;2.38;;;;;;;;;;5081083;28;20028;-81
2023/08/25 06:47:24;;;;;;;1.98;1.77;;;;;;;;;;5073008;28;20017;-81
2023/08/25 06:49:50;;;;;;;3.60;1.70;;;;;;;;;;5071450;28;20257;-81
2023/08/25 06:52:15;;;;;;;4.78;1.92;;;;;;;;;;5067363;28;20505;-82
2023/08/25 06:54:40;;;;;;;1.80;1.70;;;;;;;;;;5075249;28;20066;-82
2023/08/25 06:57:07;;;;;;;6.15;2.20;;;;;;;;;;5061006;28;20033;-83
2023/08/25 06:59:32;;;;;;;2.60;2.03;;;;;;;;;;5080792;28;20028;-83
2023/08/25 07:01:58;;;;;;;4.50;1.95;;;;;;;;;;5074598;28;20032;-83
2023/08/25 07:04:23;;;;;;;2.33;1.95;;;;;;;;;;5085783;28;20012;-84
2023/08/25 07:06:48;;;;;;;3.72;2.70;;;;;;;;;;5047220;28;20439;-84
2023/08/25 07:09:14;;;;;;;2.58;2.08;;;;;;;;;;5072124;28;20025;-83
2023/08/25 07:11:39;;;;;;;3.75;2.03;;;;;;;;;;5062334;28;20013;-83
2023/08/25 07:14:05;;;;;;;2.25;1.98;;;;;;;;;;5069752;28;20059;-83
2023/08/25 07:16:30;;;;;;;2.40;2.10;;;;;;;;;;5065897;28;20025;-85
2023/08/25 07:18:56;;;;;;;3.25;2.20;;;;;;;;;;5061912;28;20025;-82
2023/08/25 07:21:22;;;;;;;2.95;2.30;;;;;;;;;;5076108;28;20033;-83
2023/08/25 07:23:47;;;;;;;2.80;2.00;;;;;;;;;;5072358;28;20121;-83
2023/08/25 07:26:13;;;;;;;2.67;2.08;;;;;;;;;;5042861;28;20047;-83
2023/08/25 07:28:38;;;;;;;3.75;2.55;;;;;;;;;;5075196;28;20033;-84
2023/08/25 07:31:04;;;;;;;1.95;1.83;;;;;;;;;;5072829;28;20020;-83
2023/08/25 07:33:29;;;;;;;3.47;2.20;;;;;;;;;;5080939;28;20023;-83
2023/08/25 07:35:57;;;;;;;4.43;2.28;;;;;;;;;;5069926;28;20387;-83
2023/08/25 07:38:22;;;;;;;3.42;1.95;;;;;;;;;;5078124;28;20080;-83
2023/08/25 07:40:48;;;;;;;3.88;2.00;;;;;;;;;;5084421;28;20055;-82
2023/08/25 07:43:13;;;;;;;3.58;1.95;;;;;;;;;;5064922;28;20035;-83
2023/08/25 07:45:39;;;;;;;4.72;1.80;;;;;;;;;;5075144;28;20029;-83
2023/08/25 07:48:04;;;;;;;2.10;1.83;;;;;;;;;;5070603;28;20019;-84
2023/08/25 07:50:31;;;;;;;1.90;1.80;;;;;;;;;;5051689;28;20491;-84
2023/08/25 07:52:57;;;;;;;2.08;1.73;;;;;;;;;;5069580;28;20081;-84
2023/08/25 07:55:23;;;;;;;2.00;1.77;;;;;;;;;;5071016;28;20021;-84
2023/08/25 07:57:49;;;;;;;1.90;1.70;;;;;;;;;;5067276;28;20024;-85
2023/08/25 08:00:18;;;;;;;2.83;1.80;;;;;;;;;;5066568;28;20545;-84
2023/08/25 08:02:48;;;;;;;1.70;1.60;;;;;;;;;;5072373;28;20443;-85
2023/08/25 08:05:15;;;;;;;1.60;1.50;;;;;;;;;;5068929;28;20088;-86
2023/08/25 08:07:42;;;;;;;1.67;1.58;;;;;;;;;;5063118;28;20025;-86
2023/08/25 08:10:08;;;;;;;2.42;1.45;;;;;;;;;;5059557;28;20031;-86
2023/08/25 08:12:34;;;;;;;1.75;1.30;;;;;;;;;;5073292;28;20021;-86
2023/08/25 08:14:59;;;;;;;2.22;1.33;;;;;;;;;;5073589;28;20093;-86
2023/08/25 08:17:25;;;;;;;2.10;1.50;;;;;;;;;;5068077;28;20044;-86
2023/08/25 08:19:51;;;;;;;2.05;1.40;;;;;;;;;;5072491;28;20113;-87
2023/08/25 08:22:17;;;;;;;1.10;1.10;;;;;;;;;;5055157;28;20028;-85
2023/08/25 08:24:49;;;;;;;3.00;1.65;;;;;;;;;;5061544;28;20024;-86
2023/08/25 08:27:15;;;;;;;1.25;1.17;;;;;;;;;;5072587;28;20036;-87
2023/08/25 08:29:41;;;;;;;2.78;1.60;;;;;;;;;;5063290;28;20090;-86
2023/08/25 08:32:07;;;;;;;3.47;1.45;;;;;;;;;;5068514;28;20020;-85
2023/08/25 08:34:35;;;;;;;2.00;1.63;;;;;;;;;;5073056;28;20376;-86
2023/08/25 08:37:01;;;;;;;2.20;1.42;;;;;;;;;;5074016;28;20029;-88
2023/08/25 08:39:27;;;;;;;1.60;1.33;;;;;;;;;;5072282;28;20043;-87
2023/08/25 08:41:53;;;;;;;3.53;1.70;;;;;;;;;;5066481;28;20107;-87
2023/08/25 08:44:19;;;;;;;1.88;1.60;;;;;;;;;;5055034;28;20028;-85
2023/08/25 08:46:48;;;;;;;2.80;1.67;;;;;;;;;;5042518;28;20027;-85
2023/08/25 08:49:14;;;;;;;3.38;1.58;;;;;;;;;;5042488;28;20040;-85
2023/08/25 08:51:41;;;;;;;2.33;1.80;;;;;;;;;;5075472;28;20021;-85
2023/08/25 08:54:07;;;;;;;3.00;1.80;;;;;;;;;;5071639;28;20033;-86
2023/08/25 08:56:34;;;;;;;2.65;1.77;;;;;;;;;;5044630;28;20115;-86
2023/08/25 08:59:00;;;;;;;2.97;1.45;;;;;;;;;;5065014;28;20120;-86
2023/08/25 09:01:27;;;;;;;3.63;2.17;;;;;;;;;;5073590;28;20035;-86
2023/08/25 09:03:53;;;;;;;3.28;1.88;;;;;;;;;;5074078;28;20196;-86
2023/08/25 09:06:19;;;;;;;3.22;2.08;;;;;;;;;;5069159;28;20025;-85
2023/08/25 09:08:46;;;;;;;4.40;1.98;;;;;;;;;;5046336;28;20032;-85
2023/08/25 09:11:15;;;;;;;2.53;1.80;;;;;;;;;;5076030;28;20367;-85
2023/08/25 09:13:52;;;;;;;5.32;1.77;;;;;;;;;;5061506;28;20031;-84
2023/08/25 09:16:18;;;;;;;2.15;1.75;;;;;;;;;;5055370;28;20420;-84
2023/08/25 09:18:46;;;;;;;2.38;1.77;;;;;;;;;;5076095;28;20234;-84
2023/08/25 09:21:20;;;;;;;2.40;1.70;;;;;;;;;;5068893;28;20020;-84
2023/08/25 09:23:58;;;;;;;3.53;2.08;;;;;;;;;;5063485;28;20028;-84
2023/08/25 09:26:24;;;;;;;3.30;2.10;;;;;;;;;;5069673;28;20055;-84
2023/08/25 09:28:53;;;;;;;6.47;1.67;;;;;;;;;;5050220;28;20032;-84
2023/08/25 09:31:22;;;;;;;2.95;2.15;;;;;;;;;;5053905;28;20218;-84
2023/08/25 09:33:50;;;;;;;2.03;1.67;;;;;;;;;;5083849;28;20055;-84
2023/08/25 09:36:16;;;;;;;2.70;1.80;;;;;;;;;;5080860;28;20506;-84
2023/08/25 09:38:45;;;;;;;2.28;1.73;;;;;;;;;;5081546;28;20037;-84
2023/08/25 09:41:14;;;;;;;2.78;1.70;;;;;;;;;;5059042;28;20031;-83
2023/08/25 09:43:39;;;;;;;2.83;1.85;;;;;;;;;;5073218;28;20025;-84
2023/08/25 09:46:08;;;;;;;1.95;1.60;;;;;;;;;;5080184;28;20039;-84
2023/08/25 09:48:35;;;;;;;3.20;1.50;;;;;;;;;;5059431;28;20028;-84
2023/08/25 09:51:00;;;;;;;2.20;2.00;;;;;;;;;;5066270;28;20514;-83
2023/08/25 09:53:31;;;;;;;1.65;1.45;;;;;;;;;;5076843;28;20029;-84
2023/08/25 09:56:01;;;;;;;4.60;1.70;;;;;;;;;;5074728;28;20108;-83
2023/08/25 09:58:28;;;;;;;1.98;1.80;;;;;;;;;;5068651;28;20058;-84
2023/08/25 10:00:54;;;;;;;1.67;1.58;;;;;;;;;;5080767;28;20024;-83
2023/08/25 10:03:20;;;;;;;2.38;1.80;;;;;;;;;;5084306;28;20404;-83
2023/08/25 10:05:47;;;;;;;2.83;1.58;;;;;;;;;;5075774;28;20032;-83
2023/08/25 10:08:14;;;;;;;1.88;1.40;;;;;;;;;;5053278;28;20044;-82
2023/08/25 10:10:43;;;;;;;2.40;1.73;;;;;;;;;;5045570;28;20025;-83
2023/08/25 10:13:16;;;;;;;1.60;1.50;;;;;;;;;;5073632;28;20095;-83
2023/08/25 10:15:42;;;;;;;2.47;1.50;;;;;;;;;;5067485;28;20021;-83
2023/08/25 10:18:09;;;;;;;2.17;1.60;;;;;;;;;;5067807;28;20024;-83
2023/08/25 10:20:36;;;;;;;1.92;1.70;;;;;;;;;;5074904;28;20499;-83
2023/08/25 10:23:08;;;;;;;2.03;1.40;;;;;;;;;;5077292;28;20021;-83
2023/08/25 10:25:37;;;;;;;1.90;1.58;;;;;;;;;;5067929;28;20114;-84
2023/08/25 10:28:05;;;;;;;1.70;1.60;;;;;;;;;;5078514;28;20036;-82
2023/08/25 10:33:52;;;;;;;2.13;1.58;;;;;;;;;;5076575;28;20071;-82
2023/08/25 10:36:21;;;;;;;1.55;1.35;;;;;;;;;;5079244;28;20024;-83
2023/08/25 10:39:06;;;;;;;1.60;1.40;;;;;;;;;;5069485;28;20115;-82
2023/08/25 10:41:41;;;;;;;2.42;1.52;;;;;;;;;;5061363;28;20042;-83
2023/08/25 10:44:10;;;;;;;2.47;1.73;;;;;;;;;;5067054;28;20020;-84
2023/08/25 10:46:37;;;;;;;1.45;1.35;;;;;;;;;;5078860;28;20081;-83
2023/08/25 10:49:06;;;;;;;1.52;1.42;;;;;;;;;;5052371;28;20024;-84
2023/08/25 10:51:36;;;;;;;2.17;1.52;;;;;;;;;;5076461;28;20388;-84
2023/08/25 10:54:02;;;;;;;1.40;1.30;;;;;;;;;;5072991;28;20021;-83
2023/08/25 10:56:27;;;;;;;2.85;2.00;;;;;;;;;;5078378;28;20150;-84
2023/08/25 10:59:04;;;;;;;1.55;1.20;;;;;;;;;;5078965;28;20028;-83
2023/08/25 11:01:54;;;;;;;1.48;1.38;;;;;;;;;;5070281;28;20021;-83
2023/08/25 11:04:25;;;;;;;2.03;1.42;;;;;;;;;;5058716;28;20036;-84
2023/08/25 11:06:56;;;;;;;4.25;1.77;;;;;;;;;;5075678;28;20480;-83
2023/08/25 11:09:24;;;;;;;1.98;1.65;;;;;;;;;;5075927;28;20024;-83
2023/08/25 11:12:03;;;;;;;1.38;1.27;;;;;;;;;;5069591;28;20039;-84
2023/08/25 11:14:29;;;;;;;1.92;1.63;;;;;;;;;;5084448;28;20084;-84
2023/08/25 11:16:58;;;;;;;1.35;1.27;;;;;;;;;;5084994;28;20476;-84
2023/08/25 11:19:27;;;;;;;3.20;1.88;;;;;;;;;;5081135;28;20063;-83
2023/08/25 11:22:00;;;;;;;3.47;1.70;;;;;;;;;;5053132;28;20054;-83
2023/08/25 11:24:25;;;;;;;7.43;1.92;;;;;;;;;;5079243;28;20029;-83
2023/08/25 11:26:51;;;;;;;2.55;1.50;;;;;;;;;;5078519;28;20506;-83
2023/08/25 11:29:16;;;;;;;2.13;1.65;;;;;;;;;;5060291;28;20028;-84
2023/08/25 11:31:43;;;;;;;2.42;1.50;;;;;;;;;;5078991;28;20050;-83
2023/08/25 11:34:09;;;;;;;1.77;1.65;;;;;;;;;;5077177;28;20048;-83
2023/08/25 11:36:34;;;;;;;3.10;1.90;;;;;;;;;;5077013;28;20074;-83
2023/08/25 11:39:00;;;;;;;2.13;1.75;;;;;;;;;;5070589;28;20047;-83
2023/08/25 11:41:25;;;;;;;2.67;1.58;;;;;;;;;;5078294;28;20028;-83
2023/08/25 11:43:50;;;;;;;2.55;1.90;;;;;;;;;;5078345;28;20013;-83
2023/08/25 11:46:16;;;;;;;3.03;1.63;;;;;;;;;;5083441;28;20066;-83
2023/08/25 11:48:42;;;;;;;3.17;2.08;;;;;;;;;;5062452;28;20017;-84
2023/08/25 11:51:18;;;;;;;3.13;2.03;;;;;;;;;;5079005;28;20017;-83
2023/08/25 11:53:46;;;;;;;1.85;1.60;;;;;;;;;;5060090;28;20028;-83
2023/08/25 11:56:16;;;;;;;1.90;1.50;;;;;;;;;;5060708;28;20023;-83
2023/08/25 11:58:45;;;;;;;2.83;1.60;;;;;;;;;;5077906;28;20086;-83
2023/08/25 12:01:11;;;;;;;2.67;1.95;;;;;;;;;;5080256;28;20028;-84
2023/08/25 12:03:38;;;;;;;2.38;1.92;;;;;;;;;;5067983;28;20507;-81
2023/08/25 12:06:08;;;;;;;1.63;1.30;;;;;;;;;;5082346;28;20059;-82
2023/08/25 12:08:35;;;;;;;1.90;1.80;;;;;;;;;;5079263;28;20069;-83
2023/08/25 12:11:01;;;;;;;1.90;1.70;;;;;;;;;;5061872;28;20054;-82
2023/08/25 12:13:32;;;;;;;3.63;1.77;;;;;;;;;;5077684;28;20559;-81
2023/08/25 12:15:58;;;;;;;2.80;1.70;;;;;;;;;;5078847;28;20025;-81
2023/08/25 12:18:32;;;;;;;6.88;1.85;;;;;;;;;;5078522;28;20039;-83
2023/08/25 12:20:58;;;;;;;3.97;1.55;;;;;;;;;;5077564;28;20032;-82
2023/08/25 12:23:23;;;;;;;2.65;1.65;;;;;;;;;;5059807;28;20024;-81
2023/08/25 12:25:48;;;;;;;3.08;1.90;;;;;;;;;;5061286;28;20088;-82
2023/08/25 12:28:15;;;;;;;2.08;1.88;;;;;;;;;;5063717;28;20036;-82
2023/08/25 12:30:41;;;;;;;3.03;1.73;;;;;;;;;;5078525;28;20045;-81
2023/08/25 12:33:06;;;;;;;2.67;1.90;;;;;;;;;;5059180;28;20583;-82
2023/08/25 12:35:32;;;;;;;2.00;1.77;;;;;;;;;;5077682;28;20031;-81
2023/08/25 12:37:57;;;;;;;2.60;1.90;;;;;;;;;;5074350;28;20076;-82
2023/08/25 12:40:24;;;;;;;2.17;1.52;;;;;;;;;;5060881;28;20049;-82
2023/08/25 12:42:53;;;;;;;1.88;1.52;;;;;;;;;;5076041;28;20021;-84
2023/08/25 12:45:20;;;;;;;3.10;2.40;;;;;;;;;;5077257;28;20046;-83
2023/08/25 12:47:45;;;;;;;2.17;1.80;;;;;;;;;;5076358;28;20379;-82
2023/08/25 12:50:11;;;;;;;2.50;2.00;;;;;;;;;;5068820;28;20028;-82
2023/08/25 12:52:36;;;;;;;2.13;1.98;;;;;;;;;;5069309;28;20487;-83
2023/08/25 12:55:03;;;;;;;2.15;1.85;;;;;;;;;;5077125;28;20027;-82
2023/08/25 12:57:29;;;;;;;1.90;1.70;;;;;;;;;;5068929;28;20056;-83
2023/08/25 12:59:54;;;;;;;2.85;2.00;;;;;;;;;;5074108;28;20028;-82
2023/08/25 13:02:20;;;;;;;5.50;2.00;;;;;;;;;;5072639;28;20066;-82
2023/08/25 13:04:45;;;;;;;3.10;1.95;;;;;;;;;;5074121;28;20128;-82
2023/08/25 13:07:12;;;;;;;3.70;1.77;;;;;;;;;;5067834;28;20417;-82
2023/08/25 13:09:38;;;;;;;5.43;1.92;;;;;;;;;;5062812;28;20025;-83
2023/08/25 13:12:04;;;;;;;4.85;2.47;;;;;;;;;;5069384;28;20088;-83
2023/08/25 13:14:29;;;;;;;2.47;1.85;;;;;;;;;;5044884;28;20024;-82
2023/08/25 13:16:57;;;;;;;2.30;2.10;;;;;;;;;;5073845;28;20025;-83
2023/08/25 13:19:25;;;;;;;3.40;2.15;;;;;;;;;;5063046;28;20033;-83
2023/08/25 13:21:50;;;;;;;4.10;2.28;;;;;;;;;;5058253;28;20561;-84
2023/08/25 13:24:15;;;;;;;3.53;1.80;;;;;;;;;;5058833;28;20033;-83
2023/08/25 13:26:41;;;;;;;4.00;2.20;;;;;;;;;;5076559;28;20016;-83
2023/08/25 13:29:06;;;;;;;4.72;2.00;;;;;;;;;;5069919;28;20081;-83
2023/08/25 13:31:32;;;;;;;2.72;2.20;;;;;;;;;;5074052;28;20020;-84
2023/08/25 13:33:57;;;;;;;3.05;2.15;;;;;;;;;;5078894;28;20547;-83
2023/08/25 13:36:23;;;;;;;3.08;2.35;;;;;;;;;;5081788;28;20024;-82
2023/08/25 13:38:48;;;;;;;3.30;1.85;;;;;;;;;;5074101;28;20480;-82
2023/08/25 13:41:14;;;;;;;3.63;1.90;;;;;;;;;;5072350;28;20043;-82
2023/08/25 13:43:39;;;;;;;2.67;1.98;;;;;;;;;;5056254;28;20017;-82
2023/08/25 13:46:06;;;;;;;2.47;1.92;;;;;;;;;;5067293;28;20017;-83
2023/08/25 13:50:59;;;;;;;4.30;2.22;;;;;;;;;;5059881;28;20049;-83
2023/08/25 13:53:25;;;;;;;3.13;2.40;;;;;;;;;;5047460;28;20088;-82
2023/08/25 13:55:50;;;;;;;3.80;2.30;;;;;;;;;;5065108;28;20028;-82
2023/08/25 13:58:16;;;;;;;2.63;1.90;;;;;;;;;;5068785;28;20032;-83
2023/08/25 14:00:42;;;;;;;3.45;2.45;;;;;;;;;;5068651;28;20037;-82
2023/08/25 14:03:07;;;;;;;3.63;2.25;;;;;;;;;;5061718;28;20021;-82
2023/08/25 14:05:32;;;;;;;5.45;2.08;;;;;;;;;;5070018;28;20024;-82
2023/08/25 14:07:58;;;;;;;3.33;1.80;;;;;;;;;;5050311;28;20419;-83
2023/08/25 14:10:25;;;;;;;5.18;1.80;;;;;;;;;;5069525;28;20033;-82
2023/08/25 14:12:51;;;;;;;2.42;1.83;;;;;;;;;;5068943;28;20039;-82
2023/08/25 14:15:17;;;;;;;2.08;1.77;;;;;;;;;;5067315;28;20027;-83
2023/08/25 14:17:42;;;;;;;2.88;1.77;;;;;;;;;;5066826;28;20072;-82
2023/08/25 14:20:09;;;;;;;2.03;1.67;;;;;;;;;;5065420;28;20029;-82
2023/08/25 14:22:34;;;;;;;3.17;1.75;;;;;;;;;;5066911;28;20029;-82
2023/08/25 14:24:59;;;;;;;3.28;2.17;;;;;;;;;;5065741;28;20057;-82
2023/08/25 14:27:25;;;;;;;2.50;1.80;;;;;;;;;;5066218;28;20013;-83
2023/08/25 14:29:50;;;;;;;2.03;1.85;;;;;;;;;;5065421;28;20025;-81
2023/08/25 14:32:15;;;;;;;2.63;2.00;;;;;;;;;;5064446;28;20020;-81
2023/08/25 14:34:41;;;;;;;2.83;1.90;;;;;;;;;;5065444;28;20071;-81
2023/08/25 14:37:06;;;;;;;1.80;1.70;;;;;;;;;;5062180;28;20023;-82
2023/08/25 14:39:31;;;;;;;2.08;1.85;;;;;;;;;;5046620;28;20028;-81
2023/08/25 14:41:57;;;;;;;1.60;1.50;;;;;;;;;;5044355;28;20021;-80
2023/08/25 14:44:24;;;;;;;2.95;1.98;;;;;;;;;;5065496;28;20032;-81
2023/08/25 14:46:50;;;;;;;2.20;1.90;;;;;;;;;;5069822;28;20093;-81
2023/08/25 14:49:16;;;;;;;3.35;1.98;;;;;;;;;;5081208;28;20021;-81
2023/08/25 14:51:42;;;;;;;1.80;1.70;;;;;;;;;;5062768;28;20017;-80
2023/08/25 14:54:07;;;;;;;2.10;1.90;;;;;;;;;;5068182;28;20028;-81